createdAt,value
2018-04-20T00:00:11.847Z,49.8
2018-04-20T00:01:13.208Z,49.9
2018-04-20T00:02:14.609Z,50.4
2018-04-20T00:03:15.922Z,50.2
2018-04-20T00:04:17.281Z,50.8
2018-04-20T00:05:18.630Z,51.0
2018-04-20T00:06:19.994Z,51.0
2018-04-20T00:07:21.355Z,50.7
2018-04-20T00:08:22.714Z,51.0
2018-04-20T00:09:24.068Z,51.0
2018-04-20T00:10:25.423Z,50.7
2018-04-20T00:11:26.790Z,50.8
2018-04-20T00:12:28.161Z,51.0
2018-04-20T00:13:29.525Z,51.1
2018-04-20T00:14:30.869Z,51.9
2018-04-20T00:15:32.232Z,51.4
2018-04-20T00:16:33.585Z,51.5
2018-04-20T00:17:34.944Z,52.2
2018-04-20T00:18:36.302Z,52.5
2018-04-20T00:19:37.654Z,52.2
2018-04-20T00:20:39.012Z,52.9
2018-04-20T00:21:40.377Z,52.8
2018-04-20T00:22:41.726Z,53.1
2018-04-20T00:23:43.100Z,53.0
2018-04-20T00:24:44.460Z,52.9
2018-04-20T00:25:45.821Z,53.5
2018-04-20T00:26:47.177Z,53.3
2018-04-20T00:27:48.530Z,53.6
2018-04-20T00:28:49.906Z,53.7
2018-04-20T00:29:51.260Z,53.5
2018-04-20T00:30:52.626Z,53.5
2018-04-20T00:31:53.980Z,53.3
2018-04-20T00:32:55.339Z,53.6
2018-04-20T00:33:56.690Z,53.6
2018-04-20T00:34:58.056Z,53.9
2018-04-20T00:35:59.416Z,53.9
2018-04-20T00:37:00.773Z,54.0
2018-04-20T00:38:02.127Z,54.2
2018-04-20T00:39:03.493Z,54.2
2018-04-20T00:40:04.860Z,54.2
2018-04-20T00:41:06.210Z,53.3
2018-04-20T00:42:07.587Z,52.9
2018-04-20T00:43:08.949Z,51.5
2018-04-20T00:44:10.298Z,50.6
2018-04-20T00:45:11.706Z,50.4
2018-04-20T00:46:13.016Z,50.2
2018-04-20T00:47:14.367Z,50.4
2018-04-20T00:48:15.724Z,49.7
2018-04-20T00:49:17.088Z,49.8
2018-04-20T00:50:18.447Z,49.5
2018-04-20T00:51:19.806Z,49.4
2018-04-20T00:52:21.164Z,48.6
2018-04-20T00:53:22.519Z,48.0
2018-04-20T00:54:23.875Z,48.1
2018-04-20T00:55:25.234Z,47.8
2018-04-20T00:56:26.595Z,46.9
2018-04-20T00:57:27.958Z,47.3
2018-04-20T00:58:29.316Z,46.3
2018-04-20T00:59:30.673Z,46.0
2018-04-20T01:00:32.028Z,45.3
2018-04-20T01:01:33.394Z,44.9
2018-04-20T01:02:34.768Z,45.2
2018-04-20T01:03:36.131Z,45.2
2018-04-20T01:04:37.501Z,45.3
2018-04-20T01:05:38.868Z,45.6
2018-04-20T01:06:40.234Z,45.7
2018-04-20T01:07:41.603Z,46.0
2018-04-20T01:08:42.967Z,45.8
2018-04-20T01:09:44.327Z,46.2
2018-04-20T01:10:45.685Z,46.0
2018-04-20T01:11:47.053Z,46.2
2018-04-20T01:12:48.412Z,46.8
2018-04-20T01:13:49.769Z,46.9
2018-04-20T01:14:51.130Z,47.2
2018-04-20T01:15:52.486Z,47.1
2018-04-20T01:16:53.857Z,47.9
2018-04-20T01:17:55.228Z,48.2
2018-04-20T01:18:56.580Z,48.3
2018-04-20T01:19:57.938Z,48.6
2018-04-20T01:20:59.296Z,48.8
2018-04-20T01:22:00.653Z,49.2
2018-04-20T01:23:02.011Z,49.4
2018-04-20T01:24:03.372Z,49.2
2018-04-20T01:25:04.729Z,49.8
2018-04-20T01:26:06.094Z,50.4
2018-04-20T01:27:07.454Z,50.1
2018-04-20T01:28:08.849Z,50.4
2018-04-20T01:29:10.199Z,50.8
2018-04-20T01:30:11.552Z,50.7
2018-04-20T01:31:12.921Z,50.8
2018-04-20T01:32:14.278Z,51.2
2018-04-20T01:33:15.641Z,50.6
2018-04-20T01:34:17.004Z,51.5
2018-04-20T01:35:18.355Z,51.6
2018-04-20T01:36:19.714Z,51.5
2018-04-20T01:37:21.069Z,51.6
2018-04-20T01:38:22.428Z,51.4
2018-04-20T01:39:23.784Z,51.4
2018-04-20T01:40:25.148Z,51.7
2018-04-20T01:41:26.520Z,51.5
2018-04-20T01:42:27.875Z,51.3
2018-04-20T01:43:29.229Z,51.6
2018-04-20T01:44:30.584Z,51.3
2018-04-20T01:45:31.942Z,51.6
2018-04-20T01:46:33.370Z,52.2
2018-04-20T01:47:34.668Z,52.0
2018-04-20T01:48:36.020Z,52.1
2018-04-20T01:49:37.378Z,52.3
2018-04-20T01:50:38.733Z,52.3
2018-04-20T01:51:40.095Z,52.3
2018-04-20T01:52:41.451Z,52.3
2018-04-20T01:53:42.806Z,52.7
2018-04-20T01:54:44.179Z,52.8
2018-04-20T01:55:45.530Z,53.0
2018-04-20T01:56:46.895Z,53.2
2018-04-20T01:57:48.257Z,53.1
2018-04-20T01:58:49.614Z,53.4
2018-04-20T01:59:51.082Z,53.8
2018-04-20T02:00:52.294Z,53.4
2018-04-20T02:01:53.648Z,53.6
2018-04-20T02:02:55.039Z,53.6
2018-04-20T02:03:56.392Z,53.9
2018-04-20T02:04:57.754Z,54.2
2018-04-20T02:05:59.112Z,54.4
2018-04-20T02:07:00.462Z,54.4
2018-04-20T02:08:01.820Z,54.6
2018-04-20T02:09:03.176Z,54.3
2018-04-20T02:10:04.548Z,54.6
2018-04-20T02:11:05.905Z,54.4
2018-04-20T02:12:07.266Z,55.0
2018-04-20T02:13:08.621Z,54.9
2018-04-20T02:14:09.972Z,54.7
2018-04-20T02:15:11.330Z,54.9
2018-04-20T02:16:12.708Z,54.8
2018-04-20T02:17:14.052Z,54.9
2018-04-20T02:18:15.413Z,55.4
2018-04-20T02:19:16.773Z,55.6
2018-04-20T02:20:18.158Z,55.4
2018-04-20T02:21:19.509Z,55.6
2018-04-20T02:22:20.875Z,55.4
2018-04-20T02:23:22.232Z,55.0
2018-04-20T02:24:23.587Z,55.6
2018-04-20T02:25:24.951Z,55.4
2018-04-20T02:26:26.309Z,55.0
2018-04-20T02:27:27.665Z,55.1
2018-04-20T02:28:29.074Z,55.5
2018-04-20T02:29:30.438Z,55.4
2018-04-20T02:30:31.788Z,55.2
2018-04-20T02:31:33.147Z,55.2
2018-04-20T02:32:34.501Z,55.2
2018-04-20T02:33:35.852Z,55.3
2018-04-20T02:34:37.211Z,55.0
2018-04-20T02:35:38.569Z,55.0
2018-04-20T02:36:39.935Z,55.2
2018-04-20T02:37:41.295Z,55.3
2018-04-20T02:38:42.651Z,55.4
2018-04-20T02:39:44.005Z,55.0
2018-04-20T02:40:45.378Z,55.5
2018-04-20T02:41:46.730Z,55.3
2018-04-20T02:42:48.089Z,55.4
2018-04-20T02:43:49.444Z,55.9
2018-04-20T02:44:50.813Z,56.1
2018-04-20T02:45:52.166Z,56.1
2018-04-20T02:46:54.315Z,56.1
2018-04-20T02:47:54.888Z,56.1
2018-04-20T02:48:56.177Z,55.9
2018-04-20T02:49:57.547Z,55.9
2018-04-20T02:50:58.903Z,55.7
2018-04-20T02:52:00.265Z,55.8
2018-04-20T02:53:01.614Z,56.1
2018-04-20T02:54:02.982Z,56.4
2018-04-20T02:55:04.341Z,56.4
2018-04-20T02:56:05.712Z,56.0
2018-04-20T02:57:07.060Z,56.5
2018-04-20T02:58:08.426Z,56.4
2018-04-20T02:59:09.779Z,56.3
2018-04-20T03:00:11.136Z,56.0
2018-04-20T03:01:12.500Z,56.0
2018-04-20T03:02:13.857Z,56.5
2018-04-20T03:03:15.211Z,56.5
2018-04-20T03:04:16.573Z,56.4
2018-04-20T03:05:17.929Z,56.5
2018-04-20T03:06:19.317Z,56.7
2018-04-20T03:07:20.669Z,57.1
2018-04-20T03:08:22.027Z,56.9
2018-04-20T03:09:23.381Z,57.5
2018-04-20T03:10:24.740Z,57.4
2018-04-20T03:11:26.166Z,57.8
2018-04-20T03:12:27.523Z,57.6
2018-04-20T03:13:28.883Z,57.7
2018-04-20T03:14:30.239Z,57.8
2018-04-20T03:15:31.589Z,58.0
2018-04-20T03:16:32.952Z,58.0
2018-04-20T03:17:34.306Z,58.5
2018-04-20T03:18:35.664Z,58.4
2018-04-20T03:19:37.026Z,58.3
2018-04-20T03:20:38.382Z,58.5
2018-04-20T03:21:39.739Z,58.6
2018-04-20T03:22:41.091Z,58.9
2018-04-20T03:23:42.454Z,59.0
2018-04-20T03:24:43.802Z,59.0
2018-04-20T03:25:45.158Z,58.7
2018-04-20T03:26:46.560Z,58.9
2018-04-20T03:27:47.923Z,59.2
2018-04-20T03:28:49.276Z,59.7
2018-04-20T03:29:50.638Z,59.9
2018-04-20T03:30:51.990Z,59.8
2018-04-20T03:31:53.361Z,59.8
2018-04-20T03:32:54.715Z,59.8
2018-04-20T03:33:56.110Z,60.0
2018-04-20T03:34:57.476Z,60.3
2018-04-20T03:35:58.833Z,60.6
2018-04-20T03:37:00.188Z,60.8
2018-04-20T03:38:01.542Z,61.0
2018-04-20T03:39:02.908Z,60.9
2018-04-20T03:40:04.256Z,61.1
2018-04-20T03:41:05.607Z,61.3
2018-04-20T03:42:07.023Z,61.4
2018-04-20T03:43:08.388Z,61.2
2018-04-20T03:44:09.742Z,61.2
2018-04-20T03:45:11.101Z,61.2
2018-04-20T03:46:12.452Z,61.3
2018-04-20T03:47:13.805Z,61.5
2018-04-20T03:48:15.164Z,61.7
2018-04-20T03:49:16.523Z,61.9
2018-04-20T03:50:17.894Z,61.7
2018-04-20T03:51:19.252Z,61.6
2018-04-20T03:52:20.610Z,61.3
2018-04-20T03:53:21.965Z,62.2
2018-04-20T03:54:23.321Z,62.1
2018-04-20T03:55:24.679Z,61.9
2018-04-20T03:56:26.032Z,62.1
2018-04-20T03:57:27.374Z,62.5
2018-04-20T03:58:28.731Z,62.5
2018-04-20T03:59:30.090Z,62.7
2018-04-20T04:00:31.448Z,62.8
2018-04-20T04:01:32.807Z,62.6
2018-04-20T04:02:34.167Z,62.7
2018-04-20T04:03:35.523Z,63.0
2018-04-20T04:04:36.882Z,63.0
2018-04-20T04:05:38.241Z,63.0
2018-04-20T04:06:39.665Z,62.7
2018-04-20T04:07:41.055Z,63.3
2018-04-20T04:08:42.413Z,63.0
2018-04-20T04:09:43.771Z,63.7
2018-04-20T04:10:45.142Z,63.8
2018-04-20T04:11:46.485Z,63.6
2018-04-20T04:12:47.874Z,63.7
2018-04-20T04:13:49.227Z,63.2
2018-04-20T04:14:50.582Z,63.5
2018-04-20T04:15:51.961Z,63.7
2018-04-20T04:16:53.322Z,64.1
2018-04-20T04:17:54.715Z,64.1
2018-04-20T04:18:56.136Z,64.1
2018-04-20T04:19:57.522Z,64.1
2018-04-20T04:20:58.860Z,64.2
2018-04-20T04:22:00.213Z,64.2
2018-04-20T04:23:01.569Z,64.1
2018-04-20T04:24:02.927Z,64.1
2018-04-20T04:25:04.289Z,64.9
2018-04-20T04:26:05.640Z,64.8
2018-04-20T04:27:07.002Z,64.7
2018-04-20T04:28:08.368Z,65.1
2018-04-20T04:29:09.729Z,64.5
2018-04-20T04:30:11.088Z,64.6
2018-04-20T04:31:12.471Z,64.6
2018-04-20T04:32:13.841Z,64.9
2018-04-20T04:33:15.184Z,65.3
2018-04-20T04:34:16.544Z,65.2
2018-04-20T04:35:17.903Z,65.2
2018-04-20T04:36:19.271Z,65.3
2018-04-20T04:37:20.623Z,65.5
2018-04-20T04:38:21.994Z,65.9
2018-04-20T04:39:23.358Z,65.7
2018-04-20T04:40:24.769Z,65.7
2018-04-20T04:41:26.126Z,65.5
2018-04-20T04:42:27.481Z,65.6
2018-04-20T04:43:28.851Z,65.8
2018-04-20T04:44:30.224Z,65.6
2018-04-20T04:45:31.595Z,65.6
2018-04-20T04:46:32.954Z,65.6
2018-04-20T04:47:34.313Z,66.2
2018-04-20T04:48:35.668Z,66.0
2018-04-20T04:49:37.028Z,66.7
2018-04-20T04:50:38.394Z,66.6
2018-04-20T04:51:39.755Z,66.5
2018-04-20T04:52:41.120Z,66.8
2018-04-20T04:53:42.480Z,66.3
2018-04-20T04:54:43.838Z,66.5
2018-04-20T04:55:45.198Z,67.0
2018-04-20T04:56:46.561Z,66.5
2018-04-20T04:57:47.918Z,67.2
2018-04-20T04:58:49.284Z,67.2
2018-04-20T04:59:50.649Z,67.3
2018-04-20T05:00:52.009Z,67.2
2018-04-20T05:01:53.371Z,67.4
2018-04-20T05:02:54.734Z,67.3
2018-04-20T05:03:56.095Z,67.1
2018-04-20T05:04:57.448Z,66.9
2018-04-20T05:05:58.815Z,67.3
2018-04-20T05:07:00.176Z,67.1
2018-04-20T05:08:01.529Z,67.3
2018-04-20T05:09:02.894Z,67.1
2018-04-20T05:10:04.253Z,67.3
2018-04-20T05:11:05.612Z,67.3
2018-04-20T05:12:06.975Z,67.2
2018-04-20T05:13:08.330Z,66.9
2018-04-20T05:14:09.692Z,66.9
2018-04-20T05:15:11.049Z,67.5
2018-04-20T05:16:12.409Z,67.4
2018-04-20T05:17:13.764Z,67.4
2018-04-20T05:18:15.129Z,67.5
2018-04-20T05:19:16.489Z,67.4
2018-04-20T05:20:17.871Z,66.7
2018-04-20T05:21:19.244Z,66.9
2018-04-20T05:22:20.603Z,67.6
2018-04-20T05:23:21.967Z,67.6
2018-04-20T05:24:23.325Z,67.6
2018-04-20T05:25:24.739Z,67.6
2018-04-20T05:26:26.142Z,67.6
2018-04-20T05:27:27.508Z,67.6
2018-04-20T05:28:28.875Z,67.4
2018-04-20T05:29:30.232Z,67.6
2018-04-20T05:30:31.595Z,67.4
2018-04-20T05:31:32.969Z,67.4
2018-04-20T05:32:34.336Z,67.5
2018-04-20T05:33:35.705Z,67.7
2018-04-20T05:34:37.066Z,67.7
2018-04-20T05:35:38.433Z,67.8
2018-04-20T05:36:39.791Z,67.8
2018-04-20T05:37:41.158Z,68.0
2018-04-20T05:38:42.534Z,67.9
2018-04-20T05:39:43.904Z,67.5
2018-04-20T05:40:45.269Z,67.5
2018-04-20T05:41:46.625Z,68.0
2018-04-20T05:42:47.992Z,67.8
2018-04-20T05:43:49.357Z,68.1
2018-04-20T05:44:50.736Z,68.3
2018-04-20T05:45:52.101Z,68.4
2018-04-20T05:46:53.465Z,68.3
2018-04-20T05:47:54.899Z,68.1
2018-04-20T05:48:56.286Z,68.4
2018-04-20T05:49:57.654Z,68.7
2018-04-20T05:50:59.015Z,68.5
2018-04-20T05:52:00.385Z,68.5
2018-04-20T05:53:01.744Z,68.2
2018-04-20T05:54:03.100Z,68.4
2018-04-20T05:55:04.460Z,68.3
2018-04-20T05:56:05.824Z,68.8
2018-04-20T05:57:07.182Z,69.3
2018-04-20T05:58:08.547Z,69.4
2018-04-20T05:59:10.023Z,69.1
2018-04-20T06:00:11.387Z,69.2
2018-04-20T06:01:12.808Z,69.3
2018-04-20T06:02:14.119Z,69.0
2018-04-20T06:03:15.477Z,69.0
2018-04-20T06:04:16.851Z,69.3
2018-04-20T06:05:18.218Z,69.3
2018-04-20T06:06:19.590Z,69.2
2018-04-20T06:07:20.948Z,69.6
2018-04-20T06:08:22.312Z,69.4
2018-04-20T06:09:23.660Z,69.1
2018-04-20T06:10:25.025Z,69.6
2018-04-20T06:11:26.391Z,69.6
2018-04-20T06:12:27.760Z,69.6
2018-04-20T06:13:29.122Z,69.6
2018-04-20T06:14:30.490Z,69.6
2018-04-20T06:15:31.862Z,69.4
2018-04-20T06:16:33.223Z,69.6
2018-04-20T06:17:34.581Z,69.5
2018-04-20T06:18:35.946Z,69.8
2018-04-20T06:19:37.303Z,69.8
2018-04-20T06:20:38.673Z,69.7
2018-04-20T06:21:40.032Z,70.1
2018-04-20T06:22:41.397Z,69.9
2018-04-20T06:23:42.769Z,69.9
2018-04-20T06:24:44.120Z,69.4
2018-04-20T06:25:45.484Z,69.5
2018-04-20T06:26:46.904Z,69.3
2018-04-20T06:27:48.221Z,68.8
2018-04-20T06:28:49.586Z,67.9
2018-04-20T06:29:50.975Z,68.0
2018-04-20T06:30:52.336Z,67.2
2018-04-20T06:31:53.686Z,66.6
2018-04-20T06:32:55.089Z,65.5
2018-04-20T06:33:56.445Z,65.9
2018-04-20T06:34:57.811Z,65.5
2018-04-20T06:35:59.184Z,64.7
2018-04-20T06:37:00.551Z,64.4
2018-04-20T06:38:01.914Z,64.4
2018-04-20T06:39:03.287Z,64.2
2018-04-20T06:40:04.665Z,64.1
2018-04-20T06:41:06.029Z,63.6
2018-04-20T06:42:07.406Z,63.3
2018-04-20T06:43:08.791Z,63.1
2018-04-20T06:44:10.155Z,63.0
2018-04-20T06:45:11.556Z,62.4
2018-04-20T06:46:12.936Z,62.3
2018-04-20T06:47:14.307Z,61.8
2018-04-20T06:48:16.153Z,61.5
2018-04-20T06:49:17.528Z,61.7
2018-04-20T06:50:18.900Z,61.3
2018-04-20T06:51:20.289Z,61.2
2018-04-20T06:52:21.659Z,61.0
2018-04-20T06:53:23.030Z,60.1
2018-04-20T06:54:24.413Z,60.1
2018-04-20T06:55:25.789Z,60.4
2018-04-20T06:56:27.201Z,59.9
2018-04-20T06:57:28.587Z,59.0
2018-04-20T06:58:29.993Z,59.0
2018-04-20T06:59:31.374Z,58.7
2018-04-20T07:00:32.752Z,58.7
2018-04-20T07:01:34.150Z,58.2
2018-04-20T07:02:35.581Z,58.6
2018-04-20T07:03:36.955Z,58.0
2018-04-20T07:04:38.340Z,57.9
2018-04-20T07:05:39.720Z,57.7
2018-04-20T07:06:41.183Z,57.0
2018-04-20T07:07:42.598Z,56.7
2018-04-20T07:08:43.983Z,57.2
2018-04-20T07:09:45.354Z,56.4
2018-04-20T07:10:47.683Z,55.8
2018-04-20T07:11:49.057Z,55.5
2018-04-20T07:12:50.423Z,55.5
2018-04-20T07:13:51.803Z,55.8
2018-04-20T07:14:53.205Z,55.1
2018-04-20T07:15:54.556Z,54.9
2018-04-20T07:16:55.936Z,54.9
2018-04-20T07:17:57.312Z,54.6
2018-04-20T07:18:58.750Z,54.4
2018-04-20T07:20:00.142Z,54.7
2018-04-20T07:21:01.508Z,54.2
2018-04-20T07:22:02.897Z,53.7
2018-04-20T07:23:04.278Z,53.3
2018-04-20T07:24:05.679Z,53.2
2018-04-20T07:25:07.045Z,52.9
2018-04-20T07:26:08.444Z,52.9
2018-04-20T07:27:09.814Z,52.9
2018-04-20T07:28:11.196Z,52.4
2018-04-20T07:29:12.571Z,52.2
2018-04-20T07:30:13.961Z,52.5
2018-04-20T07:31:15.348Z,51.8
2018-04-20T07:32:16.720Z,51.7
2018-04-20T07:33:18.096Z,51.0
2018-04-20T07:34:19.484Z,50.9
2018-04-20T07:35:20.867Z,51.1
2018-04-20T07:36:22.264Z,50.9
2018-04-20T07:37:23.644Z,50.3
2018-04-20T07:38:25.119Z,50.4
2018-04-20T07:39:26.508Z,50.7
2018-04-20T07:40:27.951Z,49.9
2018-04-20T07:41:29.379Z,50.2
2018-04-20T07:42:30.721Z,49.8
2018-04-20T07:43:32.087Z,49.5
2018-04-20T07:44:33.473Z,49.9
2018-04-20T07:45:34.857Z,49.7
2018-04-20T07:46:36.238Z,49.5
2018-04-20T07:47:37.624Z,49.0
2018-04-20T07:48:39.002Z,48.9
2018-04-20T07:49:40.401Z,48.7
2018-04-20T07:50:41.791Z,48.6
2018-04-20T07:51:43.388Z,48.7
2018-04-20T07:52:44.788Z,48.3
2018-04-20T07:53:46.181Z,48.3
2018-04-20T07:54:47.571Z,48.6
2018-04-20T07:55:48.944Z,48.5
2018-04-20T07:56:50.338Z,48.3
2018-04-20T07:57:51.721Z,48.2
2018-04-20T07:58:53.140Z,48.6
2018-04-20T07:59:54.576Z,48.6
2018-04-20T08:00:55.979Z,48.2
2018-04-20T08:01:57.456Z,48.1
2018-04-20T08:02:58.974Z,48.4
2018-04-20T08:04:00.549Z,48.3
2018-04-20T08:05:02.262Z,48.2
2018-04-20T08:06:03.665Z,47.9
2018-04-20T08:07:05.044Z,48.2
2018-04-20T08:08:06.458Z,48.0
2018-04-20T08:09:07.877Z,48.0
2018-04-20T08:10:09.301Z,47.8
2018-04-20T08:11:10.761Z,47.7
2018-04-20T08:12:12.291Z,47.5
2018-04-20T08:13:13.789Z,47.4
2018-04-20T08:14:15.287Z,47.2
2018-04-20T08:15:16.760Z,47.3
2018-04-20T08:16:18.182Z,47.0
2018-04-20T08:17:19.579Z,47.0
2018-04-20T08:18:21.011Z,46.9
2018-04-20T08:19:22.402Z,46.8
2018-04-20T08:20:23.812Z,47.5
2018-04-20T08:21:25.257Z,47.5
2018-04-20T08:22:26.676Z,47.0
2018-04-20T08:23:28.071Z,46.8
2018-04-20T08:24:29.468Z,46.2
2018-04-20T08:25:30.882Z,46.4
2018-04-20T08:26:32.268Z,46.3
2018-04-20T08:27:33.667Z,45.9
2018-04-20T08:28:35.098Z,45.5
2018-04-20T08:29:36.504Z,45.8
2018-04-20T08:30:37.882Z,45.5
2018-04-20T08:31:39.266Z,44.9
2018-04-20T08:32:40.677Z,45.0
2018-04-20T08:33:42.068Z,44.9
2018-04-20T08:34:43.479Z,44.5
2018-04-20T08:35:44.870Z,44.1
2018-04-20T08:36:46.259Z,43.9
2018-04-20T08:37:47.646Z,44.2
2018-04-20T08:38:49.031Z,43.9
2018-04-20T08:39:50.417Z,44.3
2018-04-20T08:40:51.794Z,44.2
2018-04-20T08:41:53.188Z,44.3
2018-04-20T08:42:54.664Z,44.6
2018-04-20T08:43:56.045Z,44.3
2018-04-20T08:44:57.473Z,44.3
2018-04-20T08:45:58.876Z,44.5
2018-04-20T08:47:00.262Z,44.5
2018-04-20T08:48:01.640Z,44.0
2018-04-20T08:49:03.084Z,44.3
2018-04-20T08:50:04.473Z,43.6
2018-04-20T08:51:05.875Z,43.3
2018-04-20T08:52:07.274Z,43.4
2018-04-20T08:53:08.656Z,43.2
2018-04-20T08:54:10.043Z,43.2
2018-04-20T08:55:11.438Z,43.2
2018-04-20T08:56:12.826Z,43.0
2018-04-20T08:57:14.231Z,43.0
2018-04-20T08:58:15.627Z,43.4
2018-04-20T08:59:17.081Z,42.8
2018-04-20T09:00:18.481Z,42.3
2018-04-20T09:01:19.859Z,42.6
2018-04-20T09:02:21.315Z,42.3
2018-04-20T09:03:22.612Z,41.8
2018-04-20T09:04:24.007Z,42.1
2018-04-20T09:05:25.406Z,42.1
2018-04-20T09:06:26.832Z,42.0
2018-04-20T09:07:28.249Z,41.5
2018-04-20T09:08:29.651Z,41.8
2018-04-20T09:09:31.040Z,41.8
2018-04-20T09:10:32.430Z,41.5
2018-04-20T09:11:33.843Z,41.5
2018-04-20T09:12:35.340Z,41.4
2018-04-20T09:13:36.736Z,40.8
2018-04-20T09:14:38.236Z,41.0
2018-04-20T09:15:39.688Z,40.7
2018-04-20T09:16:41.141Z,40.3
2018-04-20T09:17:42.564Z,40.5
2018-04-20T09:18:43.964Z,40.1
2018-04-20T09:19:45.360Z,40.1
2018-04-20T09:20:46.752Z,39.9
2018-04-20T09:21:48.222Z,39.8
2018-04-20T09:22:49.655Z,39.7
2018-04-20T09:23:51.057Z,40.0
2018-04-20T09:24:52.463Z,39.9
2018-04-20T09:25:53.877Z,39.9
2018-04-20T09:26:55.418Z,39.6
2018-04-20T09:27:56.951Z,39.5
2018-04-20T09:28:58.476Z,39.4
2018-04-20T09:29:59.926Z,38.7
2018-04-20T09:31:01.371Z,39.1
2018-04-20T09:32:02.882Z,38.6
2018-04-20T09:33:04.297Z,38.7
2018-04-20T09:34:05.742Z,38.6
2018-04-20T09:35:07.160Z,38.0
2018-04-20T09:36:08.572Z,38.2
2018-04-20T09:37:10.060Z,38.2
2018-04-20T09:38:11.646Z,38.1
2018-04-20T09:39:13.071Z,37.6
2018-04-20T09:40:14.515Z,37.9
2018-04-20T09:41:15.952Z,37.5
2018-04-20T09:42:17.432Z,37.4
2018-04-20T09:43:18.830Z,37.7
2018-04-20T09:44:20.236Z,37.8
2018-04-20T09:45:21.662Z,37.7
2018-04-20T09:46:23.065Z,37.5
2018-04-20T09:47:25.449Z,37.9
2018-04-20T09:48:26.940Z,37.6
2018-04-20T09:49:28.375Z,37.4
2018-04-20T09:50:29.745Z,38.1
2018-04-20T09:51:31.165Z,38.1
2018-04-20T09:52:32.598Z,38.1
2018-04-20T09:53:34.105Z,37.7
2018-04-20T09:54:35.634Z,37.8
2018-04-20T09:55:37.133Z,38.2
2018-04-20T09:56:38.622Z,38.0
2018-04-20T09:57:40.070Z,37.5
2018-04-20T09:58:41.553Z,37.9
2018-04-20T09:59:43.053Z,37.7
2018-04-20T10:00:44.568Z,37.7
2018-04-20T10:01:46.037Z,37.7
2018-04-20T10:02:47.473Z,37.8
2018-04-20T10:03:48.957Z,37.3
2018-04-20T10:04:50.395Z,37.5
2018-04-20T10:05:51.838Z,37.7
2018-04-20T10:06:53.340Z,37.3
2018-04-20T10:07:54.967Z,37.4
2018-04-20T10:08:56.439Z,36.9
2018-04-20T10:09:57.949Z,36.9
2018-04-20T10:10:59.447Z,37.0
2018-04-20T10:12:00.862Z,36.8
2018-04-20T10:13:02.281Z,36.7
2018-04-20T10:14:03.720Z,36.6
2018-04-20T10:15:05.170Z,36.7
2018-04-20T10:16:06.589Z,36.7
2018-04-20T10:17:08.019Z,36.6
2018-04-20T10:18:10.013Z,36.6
2018-04-20T10:19:11.628Z,36.6
2018-04-20T10:20:13.396Z,35.9
2018-04-20T10:21:15.338Z,35.8
2018-04-20T10:22:17.184Z,36.0
2018-04-20T10:23:19.160Z,35.9
2018-04-20T10:24:20.936Z,36.1
2018-04-20T10:25:22.516Z,35.9
2018-04-20T10:26:25.339Z,36.2
2018-04-20T10:27:27.282Z,35.6
2018-04-20T10:28:28.775Z,35.6
2018-04-20T10:29:30.227Z,35.4
2018-04-20T10:30:31.634Z,35.6
2018-04-20T10:31:33.068Z,35.6
2018-04-20T10:32:34.513Z,35.3
2018-04-20T10:33:35.956Z,35.2
2018-04-20T10:34:37.441Z,35.4
2018-04-20T10:35:38.876Z,35.6
2018-04-20T10:36:40.331Z,35.4
2018-04-20T10:37:41.801Z,35.2
2018-04-20T10:38:43.198Z,35.4
2018-04-20T10:39:44.641Z,35.1
2018-04-20T10:40:46.089Z,35.4
2018-04-20T10:41:47.503Z,35.2
2018-04-20T10:42:48.952Z,35.2
2018-04-20T10:43:50.507Z,35.6
2018-04-20T10:44:51.956Z,35.5
2018-04-20T10:45:54.007Z,35.2
2018-04-20T10:46:55.531Z,35.1
2018-04-20T10:47:57.060Z,35.5
2018-04-20T10:48:58.557Z,34.9
2018-04-20T10:49:59.967Z,35.1
2018-04-20T10:51:01.393Z,35.1
2018-04-20T10:52:02.847Z,35.5
2018-04-20T10:53:04.332Z,35.3
2018-04-20T10:54:05.910Z,35.4
2018-04-20T10:55:07.398Z,35.0
2018-04-20T10:56:08.880Z,34.8
2018-04-20T10:57:10.315Z,34.6
2018-04-20T10:58:11.779Z,34.5
2018-04-20T10:59:13.267Z,34.8
2018-04-20T11:00:14.721Z,35.0
2018-04-20T11:01:16.192Z,35.1
2018-04-20T11:02:17.699Z,34.7
2018-04-20T11:03:19.161Z,34.3
2018-04-20T11:04:20.658Z,34.9
2018-04-20T11:05:22.116Z,34.5
2018-04-20T11:06:23.569Z,34.6
2018-04-20T11:07:25.129Z,34.4
2018-04-20T11:08:26.650Z,34.6
2018-04-20T11:09:28.170Z,34.4
2018-04-20T11:10:29.634Z,34.3
2018-04-20T11:11:31.060Z,33.9
2018-04-20T11:12:32.516Z,33.6
2018-04-20T11:13:34.043Z,33.7
2018-04-20T11:14:35.510Z,33.8
2018-04-20T11:15:36.996Z,34.2
2018-04-20T11:16:38.429Z,33.6
2018-04-20T11:17:39.857Z,33.6
2018-04-20T11:18:41.260Z,34.0
2018-04-20T11:19:42.706Z,34.0
2018-04-20T11:20:44.107Z,34.3
2018-04-20T11:21:45.519Z,34.4
2018-04-20T11:22:46.941Z,34.4
2018-04-20T11:23:48.361Z,34.3
2018-04-20T11:24:50.024Z,34.1
2018-04-20T11:25:51.479Z,33.8
2018-04-20T11:26:52.980Z,33.7
2018-04-20T11:27:54.559Z,33.3
2018-04-20T11:28:56.108Z,33.3
2018-04-20T11:29:57.664Z,33.3
2018-04-20T11:30:59.085Z,33.3
2018-04-20T11:32:00.520Z,33.4
2018-04-20T11:33:02.001Z,33.5
2018-04-20T11:34:03.463Z,33.4
2018-04-20T11:35:04.878Z,33.2
2018-04-20T11:36:06.384Z,33.3
2018-04-20T11:37:07.887Z,33.1
2018-04-20T11:38:09.305Z,33.0
2018-04-20T11:39:10.759Z,33.1
2018-04-20T11:40:12.204Z,32.8
2018-04-20T11:41:13.650Z,32.6
2018-04-20T11:42:15.081Z,32.4
2018-04-20T11:43:16.582Z,32.2
2018-04-20T11:44:18.030Z,32.2
2018-04-20T11:45:19.459Z,32.5
2018-04-20T11:46:20.943Z,32.3
2018-04-20T11:47:22.502Z,32.3
2018-04-20T11:48:24.839Z,32.5
2018-04-20T11:49:26.350Z,32.3
2018-04-20T11:50:28.068Z,32.3
2018-04-20T11:51:29.537Z,32.2
2018-04-20T11:52:30.956Z,32.1
2018-04-20T11:53:32.383Z,31.8
2018-04-20T11:54:33.931Z,31.9
2018-04-20T11:55:35.404Z,32.2
2018-04-20T11:56:36.936Z,32.2
2018-04-20T11:57:38.392Z,32.1
2018-04-20T11:58:39.990Z,32.0
2018-04-20T11:59:41.485Z,31.8
2018-04-20T12:00:43.081Z,31.6
2018-04-20T12:01:44.548Z,31.6
2018-04-20T12:02:46.071Z,31.4
2018-04-20T12:03:47.524Z,31.7
2018-04-20T12:04:49.023Z,31.7
2018-04-20T12:05:50.460Z,31.3
2018-04-20T12:06:51.953Z,31.2
2018-04-20T12:07:53.511Z,31.1
2018-04-20T12:08:55.207Z,30.9
2018-04-20T12:09:56.840Z,30.7
2018-04-20T12:10:58.274Z,31.1
2018-04-20T12:11:59.690Z,30.9
2018-04-20T12:13:01.096Z,30.9
2018-04-20T12:14:02.756Z,31.0
2018-04-20T12:15:04.310Z,30.6
2018-04-20T12:16:05.856Z,30.7
2018-04-20T12:17:07.392Z,30.6
2018-04-20T12:18:09.006Z,30.5
2018-04-20T12:19:10.735Z,30.2
2018-04-20T12:20:12.937Z,30.3
2018-04-20T12:21:14.479Z,30.8
2018-04-20T12:22:16.552Z,30.5
2018-04-20T12:23:18.077Z,30.2
2018-04-20T12:24:19.624Z,30.9
2018-04-20T12:25:21.244Z,30.4
2018-04-20T12:26:22.682Z,30.7
2018-04-20T12:27:24.315Z,30.4
2018-04-20T12:28:25.996Z,30.3
2018-04-20T12:29:27.710Z,30.6
2018-04-20T12:30:29.235Z,30.7
2018-04-20T12:31:30.867Z,30.5
2018-04-20T12:32:32.386Z,30.6
2018-04-20T12:33:33.949Z,30.5
2018-04-20T12:34:35.458Z,30.7
2018-04-20T12:35:37.054Z,30.3
2018-04-20T12:36:38.618Z,30.8
2018-04-20T12:37:40.176Z,30.2
2018-04-20T12:38:41.636Z,30.3
2018-04-20T12:39:43.046Z,30.5
2018-04-20T12:40:44.438Z,30.3
2018-04-20T12:41:45.831Z,30.3
2018-04-20T12:42:47.227Z,30.8
2018-04-20T12:43:48.607Z,30.8
2018-04-20T12:44:50.014Z,29.9
2018-04-20T12:45:51.453Z,30.4
2018-04-20T12:46:52.852Z,30.7
2018-04-20T12:47:54.262Z,30.5
2018-04-20T12:48:55.655Z,30.5
2018-04-20T12:49:57.053Z,30.1
2018-04-20T12:50:58.445Z,30.5
2018-04-20T12:51:59.832Z,30.5
2018-04-20T12:53:01.226Z,30.5
2018-04-20T12:54:02.619Z,30.2
2018-04-20T12:55:04.008Z,29.9
2018-04-20T12:56:05.415Z,29.9
2018-04-20T12:57:06.794Z,30.0
2018-04-20T12:58:08.190Z,30.3
2018-04-20T12:59:09.578Z,30.1
2018-04-20T13:00:10.965Z,30.8
2018-04-20T13:01:12.362Z,30.6
2018-04-20T13:02:13.751Z,30.0
2018-04-20T13:03:15.135Z,30.5
2018-04-20T13:04:16.542Z,30.1
2018-04-20T13:05:17.923Z,30.1
2018-04-20T13:06:19.316Z,30.0
2018-04-20T13:07:20.716Z,30.0
2018-04-20T13:08:22.108Z,30.2
2018-04-20T13:09:23.522Z,30.7
2018-04-20T13:10:24.913Z,30.8
2018-04-20T13:11:26.308Z,30.4
2018-04-20T13:12:27.712Z,30.5
2018-04-20T13:13:29.104Z,30.3
2018-04-20T13:14:30.492Z,30.2
2018-04-20T13:15:31.885Z,30.3
2018-04-20T13:16:33.261Z,30.3
2018-04-20T13:17:34.661Z,30.7
2018-04-20T13:18:36.053Z,30.3
2018-04-20T13:19:37.457Z,30.7
2018-04-20T13:20:38.846Z,30.1
2018-04-20T13:21:40.254Z,30.0
2018-04-20T13:22:41.657Z,30.0
2018-04-20T13:23:43.055Z,30.0
2018-04-20T13:24:44.456Z,30.4
2018-04-20T13:25:45.840Z,29.5
2018-04-20T13:26:47.232Z,29.5
2018-04-20T13:27:48.612Z,29.6
2018-04-20T13:28:50.005Z,29.7
2018-04-20T13:29:51.406Z,29.7
2018-04-20T13:30:52.785Z,29.8
2018-04-20T13:31:55.042Z,29.8
2018-04-20T13:32:56.637Z,29.8
2018-04-20T13:33:58.048Z,29.8
2018-04-20T13:34:59.429Z,29.8
2018-04-20T13:36:00.821Z,29.9
2018-04-20T13:37:02.270Z,29.8